Time;durP1;ratioP1;P1;durP2;ratioP2;P2;SDS_P1;SDS_P2;PMS_P1;PMS_P2;Temp;Humidity;BMP_temperature;BMP_pressure;BME280_temperature;BME280_humidity;BME280_pressure;Samples;Min_cycle;Max_cycle;Signal;HPM_P1;HPM_P2
2022/11/14 00:00:30;;;;;;;12.90;11.60;;;;;;;3.43;nan;98098.38;5056265;28;20235;-71
2022/11/14 00:03:00;;;;;;;13.30;11.90;;;;;;;3.45;nan;98093.78;5056116;28;20215;-71
2022/11/14 00:05:27;;;;;;;14.47;12.00;;;;;;;3.44;nan;98091.31;5056767;28;20220;-72
2022/11/14 00:07:54;;;;;;;14.87;11.77;;;;;;;3.43;nan;98085.22;5056464;28;20208;-72
2022/11/14 00:10:20;;;;;;;13.37;11.70;;;;;;;3.39;nan;98088.38;5056296;28;20225;-72
2022/11/14 00:12:47;;;;;;;12.80;11.47;;;;;;;3.40;nan;98084.75;5056330;28;20235;-71
2022/11/14 00:15:14;;;;;;;13.83;11.00;;;;;;;3.28;nan;98086.97;5056019;28;20213;-72
2022/11/14 00:17:40;;;;;;;12.43;11.13;;;;;;;3.30;nan;98081.53;5056269;28;20201;-71
2022/11/14 00:20:08;;;;;;;16.23;11.83;;;;;;;3.25;nan;98083.88;5056084;28;20215;-72
2022/11/14 00:22:35;;;;;;;12.33;11.03;;;;;;;3.11;nan;98087.22;5055856;28;20217;-71
2022/11/14 00:25:01;;;;;;;12.33;11.03;;;;;;;3.15;nan;98086.69;5056072;28;20233;-72
2022/11/14 00:27:28;;;;;;;13.43;11.87;;;;;;;3.15;nan;98091.94;5055802;28;20215;-71
2022/11/14 00:29:55;;;;;;;12.17;10.43;;;;;;;3.11;nan;98090.66;5056060;28;20249;-71
2022/11/14 00:32:22;;;;;;;12.27;10.97;;;;;;;3.16;nan;98090.16;5055671;28;20216;-71
2022/11/14 00:34:49;;;;;;;13.03;10.87;;;;;;;3.13;nan;98093.94;5055639;28;20611;-71
2022/11/14 00:37:15;;;;;;;12.83;11.40;;;;;;;3.05;nan;98075.59;5055602;28;20209;-71
2022/11/14 00:39:41;;;;;;;13.27;11.50;;;;;;;3.05;nan;98080.84;5055845;28;20231;-71
2022/11/14 00:42:08;;;;;;;13.00;11.30;;;;;;;2.98;nan;98082.50;5055769;28;20584;-71
2022/11/14 00:44:34;;;;;;;12.87;10.83;;;;;;;3.02;nan;98080.38;5055744;28;20221;-71
2022/11/14 00:47:00;;;;;;;12.47;11.17;;;;;;;3.05;nan;98074.75;5055719;28;20207;-71
2022/11/14 00:49:27;;;;;;;12.53;11.27;;;;;;;2.92;nan;98071.88;5055678;28;20216;-71
2022/11/14 00:51:53;;;;;;;12.73;10.83;;;;;;;3.02;nan;98069.88;5055280;28;20225;-72
2022/11/14 00:54:20;;;;;;;12.37;11.07;;;;;;;3.11;nan;98066.22;5055584;28;20207;-71
2022/11/14 00:56:46;;;;;;;13.67;11.93;;;;;;;3.08;nan;98063.94;5055572;28;20205;-71
2022/11/14 00:59:12;;;;;;;14.70;11.67;;;;;;;3.07;nan;98055.22;5055515;28;20201;-72
2022/11/14 01:01:39;;;;;;;11.47;10.33;;;;;;;3.12;nan;98067.84;5055397;28;20225;-71
2022/11/14 01:04:05;;;;;;;12.10;10.33;;;;;;;3.04;nan;98060.84;5055283;28;20583;-72
2022/11/14 01:06:31;;;;;;;11.47;10.27;;;;;;;3.03;nan;98058.38;5055352;28;20205;-72
2022/11/14 01:08:58;;;;;;;11.23;10.03;;;;;;;2.83;nan;98059.75;5055235;28;20208;-71
2022/11/14 01:11:24;;;;;;;12.50;10.23;;;;;;;3.00;nan;98062.16;5054889;28;20231;-72
2022/11/14 01:13:50;;;;;;;12.77;9.97;;;;;;;2.86;nan;98056.81;5055491;28;20205;-71
2022/11/14 01:16:18;;;;;;;12.00;10.03;;;;;;;2.86;nan;98054.19;5055173;28;20213;-71
2022/11/14 01:18:44;;;;;;;12.97;10.27;;;;;;;2.98;nan;98058.06;5055139;28;20296;-71
2022/11/14 01:21:13;;;;;;;11.63;10.03;;;;;;;2.98;nan;98063.31;5054874;28;20235;-71
2022/11/14 01:23:40;;;;;;;11.17;9.90;;;;;;;3.03;nan;98053.13;5054878;28;20209;-71
2022/11/14 01:26:13;;;;;;;12.70;10.43;;;;;;;2.96;nan;98057.41;5055012;28;20208;-72
2022/11/14 01:28:40;;;;;;;11.93;10.00;;;;;;;3.02;nan;98051.50;5054940;28;20189;-71
2022/11/14 01:31:21;;;;;;;12.80;10.30;;;;;;;3.09;nan;98044.53;5053951;28;20756;-71
2022/11/14 01:33:53;;;;;;;10.40;9.20;;;;;;;3.04;nan;98036.38;5054904;28;20553;-72
2022/11/14 01:36:20;;;;;;;11.03;9.30;;;;;;;2.93;nan;98034.94;5054355;28;20209;-72
2022/11/14 01:38:46;;;;;;;10.63;9.43;;;;;;;2.88;nan;98031.19;5055016;28;20209;-71
2022/11/14 01:41:15;;;;;;;10.20;9.10;;;;;;;2.88;nan;98039.06;5054615;28;20231;-72
2022/11/14 01:43:42;;;;;;;9.97;8.70;;;;;;;2.86;nan;98038.44;5054572;28;20220;-72
2022/11/14 01:46:14;;;;;;;10.60;9.50;;;;;;;2.82;nan;98031.88;5054586;28;20221;-71
2022/11/14 01:48:50;;;;;;;10.53;9.30;;;;;;;2.78;nan;98030.56;5054192;28;20205;-71
2022/11/14 01:51:42;;;;;;;10.90;8.90;;;;;;;2.78;nan;98031.41;5054926;28;20232;-72
2022/11/14 01:54:15;;;;;;;10.77;8.93;;;;;;;2.77;nan;98037.66;5054124;28;20288;-71
2022/11/14 01:56:47;;;;;;;11.13;9.73;;;;;;;2.81;nan;98027.63;5054132;28;20645;-71
2022/11/14 01:59:19;;;;;;;10.43;9.00;;;;;;;2.79;nan;98022.53;5052838;28;20288;-71
2022/11/14 02:01:49;;;;;;;10.90;8.63;;;;;;;2.73;nan;98025.03;5053969;28;20225;-72
2022/11/14 02:04:22;;;;;;;12.23;9.80;;;;;;;2.73;nan;98012.72;5053888;28;20700;-71
2022/11/14 02:06:51;;;;;;;10.73;9.00;;;;;;;2.78;nan;98030.56;5053900;28;20200;-71
2022/11/14 02:09:17;;;;;;;10.60;9.30;;;;;;;2.70;nan;98022.72;5053834;28;20212;-71
2022/11/14 02:11:45;;;;;;;10.67;9.00;;;;;;;2.63;nan;98017.38;5054032;28;20227;-72
2022/11/14 02:14:12;;;;;;;11.13;9.93;;;;;;;2.69;nan;98010.59;5054403;28;20204;-71
2022/11/14 02:16:41;;;;;;;9.70;8.73;;;;;;;2.72;nan;98010.28;5054011;28;20228;-71
2022/11/14 02:19:08;;;;;;;9.90;8.90;;;;;;;2.69;nan;98010.59;5053952;28;20205;-71
2022/11/14 02:21:34;;;;;;;10.90;9.70;;;;;;;2.73;nan;98014.53;5053839;28;20241;-71
2022/11/14 02:24:00;;;;;;;12.73;9.77;;;;;;;2.62;nan;98009.66;5053845;28;20225;-71
2022/11/14 02:26:27;;;;;;;11.87;9.90;;;;;;;2.63;nan;98014.75;5053543;28;20672;-72
2022/11/14 02:28:55;;;;;;;12.30;10.50;;;;;;;2.64;nan;98018.19;5053871;28;20211;-71
2022/11/14 02:31:21;;;;;;;13.93;11.80;;;;;;;2.67;nan;98013.41;5053971;28;20316;-72
2022/11/14 02:33:48;;;;;;;13.20;11.30;;;;;;;2.67;nan;98020.47;5053653;28;20205;-71
2022/11/14 02:36:14;;;;;;;11.63;10.13;;;;;;;2.65;nan;98019.81;5053488;28;20215;-72
2022/11/14 02:38:40;;;;;;;12.37;10.73;;;;;;;2.68;nan;98019.47;5053445;28;20213;-71
2022/11/14 02:41:07;;;;;;;11.90;10.70;;;;;;;2.51;nan;98017.88;5053130;28;20603;-71
2022/11/14 02:43:33;;;;;;;13.77;10.97;;;;;;;2.51;nan;98004.78;5052890;28;20227;-71
2022/11/14 02:45:59;;;;;;;13.23;11.60;;;;;;;2.53;nan;98002.81;5053583;28;20205;-71
2022/11/14 02:48:26;;;;;;;12.27;10.83;;;;;;;2.55;nan;98006.06;5053281;28;20205;-71
2022/11/14 02:50:52;;;;;;;12.20;10.73;;;;;;;2.47;nan;98013.97;5053487;28;20221;-71
2022/11/14 02:53:18;;;;;;;12.33;10.57;;;;;;;2.39;nan;98012.19;5053488;28;20205;-71
2022/11/14 02:55:45;;;;;;;12.60;10.53;;;;;;;2.34;nan;98016.34;5054032;28;20198;-71
2022/11/14 02:58:11;;;;;;;12.37;11.00;;;;;;;2.46;nan;98010.53;5053124;28;20573;-71
2022/11/14 03:00:37;;;;;;;12.13;10.03;;;;;;;2.47;nan;98009.56;5053074;28;20335;-71
2022/11/14 03:03:04;;;;;;;14.10;10.67;;;;;;;2.52;nan;98016.94;5053410;28;20578;-71
2022/11/14 03:05:30;;;;;;;13.20;10.80;;;;;;;2.58;nan;98018.88;5053313;28;20225;-71
2022/11/14 03:07:57;;;;;;;13.70;11.00;;;;;;;2.56;nan;98018.19;5053357;28;20231;-71
2022/11/14 03:10:23;;;;;;;13.83;11.40;;;;;;;2.63;nan;98019.16;5053234;28;20225;-71
2022/11/14 03:12:57;;;;;;;12.60;10.47;;;;;;;2.59;nan;98013.44;5053309;28;20207;-71
2022/11/14 03:15:24;;;;;;;12.90;10.57;;;;;;;2.58;nan;98005.75;5053882;28;20200;-71
2022/11/14 03:17:51;;;;;;;12.50;10.77;;;;;;;2.44;nan;98002.00;5053300;28;20209;-71
2022/11/14 03:20:18;;;;;;;12.23;9.90;;;;;;;2.38;nan;97988.75;5052819;28;20320;-71
2022/11/14 03:22:44;;;;;;;13.83;10.53;;;;;;;2.40;nan;97979.72;5053071;28;20213;-71
2022/11/14 03:25:10;;;;;;;11.63;10.03;;;;;;;2.37;nan;97976.63;5053091;28;20229;-72
2022/11/14 03:27:37;;;;;;;11.53;10.13;;;;;;;2.31;nan;97977.31;5053164;28;20208;-71
2022/11/14 03:30:04;;;;;;;12.00;10.37;;;;;;;2.26;nan;97979.63;5053058;28;20220;-71
2022/11/14 03:32:30;;;;;;;12.10;10.27;;;;;;;2.27;nan;97971.59;5052887;28;20209;-71
2022/11/14 03:34:57;;;;;;;11.47;10.13;;;;;;;2.20;nan;97975.03;5053089;28;20201;-71
2022/11/14 03:37:24;;;;;;;11.30;9.57;;;;;;;2.17;nan;97972.78;5052819;28;20668;-71
2022/11/14 03:39:50;;;;;;;11.47;10.27;;;;;;;2.23;nan;97970.28;5052689;28;20205;-71
2022/11/14 03:42:16;;;;;;;13.53;10.33;;;;;;;2.30;nan;97958.13;5052614;28;20229;-71
2022/11/14 03:44:43;;;;;;;11.90;10.07;;;;;;;2.39;nan;97951.06;5052883;28;20227;-71
2022/11/14 03:47:09;;;;;;;11.73;10.53;;;;;;;2.26;nan;97941.09;5053013;28;20572;-71
2022/11/14 03:49:35;;;;;;;11.90;10.27;;;;;;;2.32;nan;97935.19;5052989;28;20209;-71
2022/11/14 03:52:02;;;;;;;12.40;10.77;;;;;;;2.39;nan;97937.94;5052865;28;20230;-72
2022/11/14 03:54:28;;;;;;;12.43;10.93;;;;;;;2.39;nan;97946.59;5055714;28;20204;-72
2022/11/14 03:56:55;;;;;;;11.30;10.03;;;;;;;2.30;nan;97959.94;5056582;28;20205;-71
2022/11/14 03:59:21;;;;;;;14.37;11.53;;;;;;;2.48;nan;97965.78;5056227;28;20212;-72
2022/11/14 04:01:48;;;;;;;12.80;11.10;;;;;;;2.64;nan;97978.81;5056623;28;20229;-71
2022/11/14 04:04:14;;;;;;;13.77;11.80;;;;;;;2.65;nan;97977.81;5056044;28;20247;-71
2022/11/14 04:06:41;;;;;;;14.30;11.27;;;;;;;2.66;nan;97968.97;5056116;28;20664;-71
2022/11/14 04:09:07;;;;;;;14.43;12.07;;;;;;;2.49;nan;97983.16;5056210;28;20253;-71
2022/11/14 04:11:34;;;;;;;14.47;11.57;;;;;;;2.42;nan;97980.38;5056246;28;20225;-71
2022/11/14 04:14:00;;;;;;;11.83;10.63;;;;;;;2.39;nan;97972.84;5055931;28;20209;-71
2022/11/14 04:16:26;;;;;;;14.17;11.03;;;;;;;2.32;nan;97966.66;5056170;28;20212;-71
2022/11/14 04:18:53;;;;;;;13.30;11.43;;;;;;;2.31;nan;97979.94;5056259;28;20205;-71
2022/11/14 04:21:19;;;;;;;14.53;11.47;;;;;;;2.26;nan;97979.63;5055866;28;20233;-71
2022/11/14 04:23:45;;;;;;;13.70;12.17;;;;;;;2.25;nan;97978.00;5056210;28;20374;-71
2022/11/14 04:26:12;;;;;;;15.73;12.53;;;;;;;2.17;nan;97968.31;5056030;28;20229;-71
2022/11/14 04:28:38;;;;;;;15.87;12.50;;;;;;;2.32;nan;97976.31;5056532;28;20209;-72
2022/11/14 04:31:04;;;;;;;15.60;12.93;;;;;;;2.10;nan;97977.88;5055513;28;20237;-71
2022/11/14 04:33:31;;;;;;;14.57;12.80;;;;;;;2.10;nan;97972.63;5055912;28;20207;-71
2022/11/14 04:35:57;;;;;;;16.43;14.03;;;;;;;2.09;nan;97963.13;5055825;28;20212;-71
2022/11/14 04:38:24;;;;;;;14.60;12.43;;;;;;;2.08;nan;97952.81;5055407;28;20568;-71
2022/11/14 04:40:51;;;;;;;16.13;13.47;;;;;;;2.06;nan;97952.13;5055742;28;20225;-71
2022/11/14 04:43:19;;;;;;;14.93;13.33;;;;;;;2.10;nan;97929.84;5055673;28;20209;-71
2022/11/14 04:45:45;;;;;;;16.10;13.00;;;;;;;2.15;nan;97936.22;5055624;28;20221;-71
2022/11/14 04:48:12;;;;;;;15.57;12.50;;;;;;;2.12;nan;97927.88;5055638;28;20210;-71
2022/11/14 04:50:39;;;;;;;16.53;13.43;;;;;;;2.09;nan;97934.28;5055161;28;20235;-71
2022/11/14 04:53:05;;;;;;;16.57;13.90;;;;;;;2.05;nan;97943.47;5055290;28;20211;-71
2022/11/14 04:55:32;;;;;;;16.77;13.93;;;;;;;2.08;nan;97950.19;5055194;28;20207;-71
2022/11/14 04:57:59;;;;;;;16.03;13.47;;;;;;;2.13;nan;97940.81;5055055;28;20219;-71
2022/11/14 05:00:26;;;;;;;14.57;12.93;;;;;;;2.16;nan;97942.28;5055261;28;20228;-71
2022/11/14 05:02:52;;;;;;;14.60;12.53;;;;;;;2.12;nan;97946.25;5054832;28;20621;-72
2022/11/14 05:05:18;;;;;;;15.67;12.30;;;;;;;2.09;nan;97928.22;5054610;28;20233;-71
2022/11/14 05:07:45;;;;;;;15.07;12.30;;;;;;;2.10;nan;97914.09;5054872;28;20751;-71
2022/11/14 05:10:11;;;;;;;13.97;12.43;;;;;;;1.99;nan;97909.25;5055111;28;20209;-71
2022/11/14 05:12:37;;;;;;;14.43;12.27;;;;;;;2.13;nan;97908.53;5054796;28;20700;-71
2022/11/14 05:15:04;;;;;;;14.27;12.63;;;;;;;1.96;nan;97920.06;5055124;28;20201;-71
2022/11/14 05:17:30;;;;;;;14.07;12.57;;;;;;;1.99;nan;97919.72;5054944;28;20209;-71
2022/11/14 05:19:57;;;;;;;15.50;12.47;;;;;;;2.07;nan;97903.97;5054839;28;20201;-71
2022/11/14 05:22:23;;;;;;;14.73;12.20;;;;;;;1.97;nan;97908.56;5054676;28;20220;-71
2022/11/14 05:24:50;;;;;;;16.30;13.17;;;;;;;1.91;nan;97911.88;5054855;28;20231;-71
2022/11/14 05:27:16;;;;;;;14.17;12.67;;;;;;;1.99;nan;97910.03;5054879;28;20205;-71
2022/11/14 05:29:43;;;;;;;15.90;12.73;;;;;;;1.99;nan;97915.28;5054547;28;20209;-71
2022/11/14 05:32:09;;;;;;;15.70;12.17;;;;;;;1.95;nan;97911.38;5054737;28;20229;-71
2022/11/14 05:34:35;;;;;;;18.97;13.20;;;;;;;1.94;nan;97911.56;5054620;28;20283;-71
2022/11/14 05:37:02;;;;;;;16.50;12.53;;;;;;;2.03;nan;97910.53;5054445;28;20205;-71
2022/11/14 05:39:29;;;;;;;13.80;11.90;;;;;;;1.96;nan;97906.94;5054049;28;20215;-71
2022/11/14 05:41:55;;;;;;;14.47;12.80;;;;;;;1.99;nan;97911.88;5054112;28;20225;-71
2022/11/14 05:44:22;;;;;;;19.17;11.87;;;;;;;2.07;nan;97906.59;5053790;28;20201;-71
2022/11/14 05:46:48;;;;;;;15.27;12.37;;;;;;;2.09;nan;97897.56;5053996;28;20245;-71
2022/11/14 05:49:14;;;;;;;12.87;11.50;;;;;;;2.04;nan;97893.81;5054293;28;20209;-72
2022/11/14 05:51:41;;;;;;;14.10;12.13;;;;;;;2.04;nan;97897.28;5054216;28;20221;-71
2022/11/14 05:54:07;;;;;;;12.97;11.27;;;;;;;1.96;nan;97901.69;5054220;28;20205;-71
2022/11/14 05:56:34;;;;;;;15.40;12.03;;;;;;;1.94;nan;97907.09;5054208;28;20227;-71
2022/11/14 05:59:00;;;;;;;14.93;11.50;;;;;;;2.03;nan;97900.06;5053832;28;20209;-71
2022/11/14 06:01:27;;;;;;;16.47;12.60;;;;;;;2.03;nan;97900.84;5053601;28;20229;-71
2022/11/14 06:03:54;;;;;;;14.23;11.63;;;;;;;2.10;nan;97908.88;5053781;28;20214;-72
2022/11/14 06:06:21;;;;;;;14.67;10.80;;;;;;;2.15;nan;97911.78;5053768;28;20311;-71
2022/11/14 06:08:48;;;;;;;14.27;11.37;;;;;;;2.22;nan;97918.00;5053442;28;20312;-71
2022/11/14 06:11:19;;;;;;;15.40;10.97;;;;;;;2.26;nan;97920.09;5053264;28;20229;-71
2022/11/14 06:13:46;;;;;;;12.97;10.60;;;;;;;2.31;nan;97932.72;5053142;28;20193;-71
2022/11/14 06:16:15;;;;;;;13.33;10.57;;;;;;;2.34;nan;97933.19;5053440;28;20197;-71
2022/11/14 06:18:42;;;;;;;12.97;10.23;;;;;;;2.39;nan;97924.81;5053515;28;20201;-71
2022/11/14 06:21:14;;;;;;;12.70;10.77;;;;;;;2.41;nan;97921.03;5053228;28;20233;-71
2022/11/14 06:23:41;;;;;;;13.27;10.57;;;;;;;2.40;nan;97923.81;5053200;28;20276;-71
2022/11/14 06:26:31;;;;;;;14.57;11.37;;;;;;;2.49;nan;97917.56;5053765;28;20313;-71
2022/11/14 06:28:58;;;;;;;14.57;10.17;;;;;;;2.62;nan;97912.56;5053024;28;20201;-71
2022/11/14 06:31:26;;;;;;;13.07;10.20;;;;;;;2.57;nan;97917.53;5053181;28;20228;-71
2022/11/14 06:33:53;;;;;;;10.93;9.57;;;;;;;2.71;nan;97914.16;5052992;28;20223;-71
2022/11/14 06:36:19;;;;;;;12.67;10.33;;;;;;;2.79;nan;97914.91;5053068;28;20208;-71
2022/11/14 06:38:46;;;;;;;11.37;10.17;;;;;;;2.81;nan;97922.63;5052822;28;20212;-71
2022/11/14 06:41:15;;;;;;;12.30;10.33;;;;;;;2.97;nan;97922.50;5052992;28;20231;-72
2022/11/14 06:43:44;;;;;;;13.07;10.67;;;;;;;3.00;nan;97930.88;5052924;28;20208;-71
2022/11/14 06:46:12;;;;;;;12.87;10.60;;;;;;;3.05;nan;97927.69;5052982;28;20247;-71
2022/11/14 06:48:39;;;;;;;12.57;10.50;;;;;;;3.09;nan;97923.72;5052344;28;20209;-71
2022/11/14 06:51:07;;;;;;;15.20;10.20;;;;;;;3.25;nan;97921.81;5052974;28;20221;-71
2022/11/14 06:53:35;;;;;;;13.70;9.97;;;;;;;3.36;nan;97915.31;5053346;28;20215;-72
2022/11/14 06:56:03;;;;;;;12.57;9.83;;;;;;;3.45;nan;97922.13;5052869;28;20205;-72
2022/11/14 06:58:34;;;;;;;14.40;9.43;;;;;;;3.49;nan;97924.25;5052607;28;20209;-71
2022/11/14 07:01:12;;;;;;;11.63;9.80;;;;;;;3.49;nan;97920.78;5052480;28;20308;-72
2022/11/14 07:03:38;;;;;;;12.93;9.10;;;;;;;3.46;nan;97921.13;5052988;28;20189;-71
2022/11/14 07:06:06;;;;;;;11.17;9.10;;;;;;;3.47;nan;97915.69;5052676;28;20229;-71
2022/11/14 07:08:33;;;;;;;11.93;9.93;;;;;;;3.50;nan;97914.53;5052599;28;20250;-71
2022/11/14 07:11:05;;;;;;;10.33;9.33;;;;;;;3.52;nan;97904.69;5052694;28;20603;-71
2022/11/14 07:13:32;;;;;;;11.57;9.63;;;;;;;3.55;nan;97905.13;5052961;28;20257;-72
2022/11/14 07:15:59;;;;;;;13.47;9.27;;;;;;;3.68;nan;97913.22;5052712;28;20205;-71
2022/11/14 07:18:26;;;;;;;11.97;9.60;;;;;;;3.72;nan;97921.56;5052566;28;20546;-71
2022/11/14 07:21:01;;;;;;;11.27;8.67;;;;;;;3.65;nan;97916.19;5052303;28;20231;-71
2022/11/14 07:23:28;;;;;;;12.20;9.23;;;;;;;3.71;nan;97919.94;5052279;28;20212;-71
2022/11/14 07:25:55;;;;;;;11.47;9.93;;;;;;;3.57;nan;97928.59;5052544;28;20596;-72
2022/11/14 07:28:21;;;;;;;11.40;9.70;;;;;;;3.66;nan;97924.91;5053413;28;20201;-72
2022/11/14 07:30:47;;;;;;;11.93;9.70;;;;;;;3.61;nan;97927.25;5056720;28;20228;-72
2022/11/14 07:33:14;;;;;;;10.80;9.70;;;;;;;3.63;nan;97927.88;5056702;28;20205;-72
2022/11/14 07:35:40;;;;;;;11.37;10.13;;;;;;;3.62;nan;97923.63;5056600;28;20208;-71
2022/11/14 07:38:06;;;;;;;11.00;9.83;;;;;;;3.61;nan;97924.63;5056760;28;20283;-71
2022/11/14 07:40:33;;;;;;;10.63;9.63;;;;;;;3.56;nan;97921.69;5056361;28;20221;-72
2022/11/14 07:43:00;;;;;;;13.03;9.83;;;;;;;3.56;nan;97937.47;5056398;28;20212;-72
2022/11/14 07:45:29;;;;;;;11.90;9.50;;;;;;;3.56;nan;97926.94;5056031;28;20228;-71
2022/11/14 07:47:57;;;;;;;11.33;9.37;;;;;;;3.63;nan;97930.50;5056319;28;20201;-71
2022/11/14 07:50:24;;;;;;;13.47;9.40;;;;;;;3.64;nan;97943.47;5056611;28;20229;-71
2022/11/14 07:52:52;;;;;;;14.07;10.40;;;;;;;3.71;nan;97935.72;5056441;28;20209;-72
2022/11/14 07:55:19;;;;;;;12.93;9.33;;;;;;;3.81;nan;97944.97;5056631;28;20205;-72
2022/11/14 07:57:46;;;;;;;12.70;9.30;;;;;;;3.92;nan;97948.94;5055998;28;20206;-72
2022/11/14 08:00:14;;;;;;;10.77;9.27;;;;;;;3.95;nan;97948.59;5056004;28;20208;-72
2022/11/14 08:02:40;;;;;;;11.30;8.60;;;;;;;4.02;nan;97952.16;5056021;28;20205;-71
2022/11/14 08:05:07;;;;;;;10.47;8.23;;;;;;;4.12;nan;97964.03;5056108;28;20231;-72
2022/11/14 08:07:33;;;;;;;10.50;8.67;;;;;;;4.13;nan;97967.47;5055879;28;20694;-72
2022/11/14 08:10:00;;;;;;;10.97;8.20;;;;;;;4.20;nan;97963.16;5056112;28;20567;-71
2022/11/14 08:12:26;;;;;;;9.33;8.37;;;;;;;4.25;nan;97971.31;5055971;28;20211;-72
2022/11/14 08:14:53;;;;;;;9.07;8.17;;;;;;;4.28;nan;97971.75;5055775;28;20205;-72
2022/11/14 08:17:21;;;;;;;10.20;8.10;;;;;;;4.33;nan;97976.47;5055884;28;20205;-72
2022/11/14 08:19:47;;;;;;;10.23;8.60;;;;;;;4.30;nan;97976.84;5056048;28;20571;-72
2022/11/14 08:22:14;;;;;;;10.93;8.43;;;;;;;4.32;nan;97977.47;5055309;28;20290;-72
2022/11/14 08:24:40;;;;;;;10.73;8.67;;;;;;;4.38;nan;97992.56;5055219;28;20209;-72
2022/11/14 08:27:06;;;;;;;10.30;9.07;;;;;;;4.48;nan;97987.81;5055320;28;20233;-72
2022/11/14 08:29:33;;;;;;;10.83;8.63;;;;;;;4.55;nan;97991.34;5055771;28;20211;-72
2022/11/14 08:31:59;;;;;;;11.77;9.10;;;;;;;4.60;nan;97999.50;5055734;28;20312;-72
2022/11/14 08:34:27;;;;;;;11.00;9.33;;;;;;;4.53;nan;97995.97;5055422;28;20593;-72
2022/11/14 08:36:55;;;;;;;14.30;9.50;;;;;;;4.49;nan;98005.25;5055522;28;20205;-72
2022/11/14 08:39:21;;;;;;;10.47;9.50;;;;;;;4.53;nan;98001.25;5054682;28;20213;-72
2022/11/14 08:41:48;;;;;;;13.03;10.57;;;;;;;4.51;nan;98005.88;5054899;28;20232;-72
2022/11/14 08:44:14;;;;;;;11.17;9.43;;;;;;;4.72;nan;97998.06;5055289;28;20209;-72
2022/11/14 08:46:40;;;;;;;10.80;9.43;;;;;;;4.91;nan;98005.38;5055142;28;20226;-72
2022/11/14 08:49:07;;;;;;;14.40;11.00;;;;;;;5.02;nan;97991.75;5055088;28;20211;-72
2022/11/14 08:51:33;;;;;;;10.60;8.70;;;;;;;5.36;nan;97989.25;5055431;28;20229;-72
2022/11/14 08:53:59;;;;;;;8.23;7.30;;;;;;;5.88;nan;97979.22;5055414;28;20209;-71
2022/11/14 08:56:26;;;;;;;9.70;6.80;;;;;;;6.11;nan;97991.16;5055350;28;20229;-72
2022/11/14 08:58:52;;;;;;;9.77;7.17;;;;;;;6.13;nan;97986.53;5055278;28;20212;-72
2022/11/14 09:01:19;;;;;;;8.10;6.97;;;;;;;6.23;nan;97979.06;5055235;28;20226;-72
2022/11/14 09:03:45;;;;;;;8.10;6.13;;;;;;;6.40;nan;97975.13;5055324;28;20208;-69
2022/11/14 09:06:11;;;;;;;10.10;6.30;;;;;;;6.39;nan;97978.78;5054667;28;20316;-70
2022/11/14 09:08:38;;;;;;;7.23;6.33;;;;;;;6.51;nan;97981.69;5054925;28;20231;-69
2022/11/14 09:11:05;;;;;;;10.63;6.33;;;;;;;6.51;nan;97981.69;5055050;28;20309;-69
2022/11/14 09:13:34;;;;;;;10.87;5.87;;;;;;;6.65;nan;97989.47;5055285;28;20299;-69
2022/11/14 09:16:01;;;;;;;10.00;5.60;;;;;;;6.85;nan;97984.28;5054925;28;20202;-69
2022/11/14 09:18:28;;;;;;;5.90;5.17;;;;;;;6.88;nan;97986.53;5054944;28;20209;-69
2022/11/14 09:20:59;;;;;;;6.13;4.47;;;;;;;6.97;nan;97969.50;5054966;28;20221;-69
2022/11/14 09:23:26;;;;;;;4.93;4.10;;;;;;;7.00;nan;97964.59;5054683;28;20209;-69
2022/11/14 09:25:53;;;;;;;4.23;3.63;;;;;;;7.20;nan;97962.03;5055055;28;20250;-69
2022/11/14 09:28:20;;;;;;;4.90;4.40;;;;;;;7.11;nan;97969.31;5054773;28;20205;-69
2022/11/14 09:30:46;;;;;;;4.97;4.40;;;;;;;7.13;nan;97967.31;5054430;28;20231;-69
2022/11/14 09:33:12;;;;;;;5.00;4.20;;;;;;;7.13;nan;97967.31;5054420;28;20566;-69
2022/11/14 09:35:39;;;;;;;8.97;6.40;;;;;;;7.10;nan;97969.53;5054541;28;20330;-69
2022/11/14 09:38:08;;;;;;;9.70;7.10;;;;;;;7.02;nan;97967.06;5054226;28;20205;-69
2022/11/14 09:40:51;;;;;;;12.57;6.83;;;;;;;7.04;nan;97972.94;5054433;28;20225;-69
2022/11/14 09:43:34;;;;;;;11.77;8.23;;;;;;;6.88;nan;97973.31;5054428;28;20280;-69
2022/11/14 09:46:02;;;;;;;11.17;7.93;;;;;;;6.82;nan;97963.50;5054184;28;20676;-69
2022/11/14 09:48:31;;;;;;;9.53;7.23;;;;;;;6.91;nan;97954.41;5054350;28;20201;-71
2022/11/14 09:51:06;;;;;;;10.07;7.63;;;;;;;6.91;nan;97960.50;5053826;28;20225;-70
2022/11/14 09:54:06;;;;;;;11.50;7.30;;;;;;;7.00;nan;97955.84;5054158;28;20189;-70
2022/11/14 09:56:33;;;;;;;7.97;6.67;;;;;;;7.12;nan;97956.91;5046413;28;20208;-70
2022/11/14 09:59:00;;;;;;;8.07;7.03;;;;;;;7.11;nan;97953.44;5054220;28;20264;-70
2022/11/14 10:01:48;;;;;;;10.47;7.13;;;;;;;7.09;nan;97949.38;5054232;28;20607;-70
2022/11/14 10:04:31;;;;;;;9.60;5.90;;;;;;;7.25;nan;97949.03;5054239;28;20189;-70
2022/11/14 10:07:22;;;;;;;12.13;7.90;;;;;;;7.21;nan;97951.25;5053651;28;20672;-70
2022/11/14 10:10:10;;;;;;;11.00;8.23;;;;;;;7.26;nan;97948.00;5053833;28;20200;-70
2022/11/14 10:13:00;;;;;;;9.03;6.90;;;;;;;7.31;nan;97950.84;5053700;28;20193;-70
2022/11/14 10:15:50;;;;;;;8.97;7.23;;;;;;;7.39;nan;97950.69;5053764;28;20195;-70
2022/11/14 10:18:29;;;;;;;9.13;7.50;;;;;;;7.51;nan;97941.94;5053725;28;20307;-70
2022/11/14 10:21:00;;;;;;;10.43;6.60;;;;;;;7.69;nan;97941.34;5053423;28;20225;-70
2022/11/14 10:23:52;;;;;;;7.83;5.70;;;;;;;7.96;nan;97942.97;5053646;28;20212;-70
2022/11/14 10:26:30;;;;;;;7.47;6.37;;;;;;;8.15;nan;97934.19;5047383;28;20228;-70
2022/11/14 10:29:06;;;;;;;5.13;4.20;;;;;;;8.56;nan;97929.44;5053568;28;20215;-70
2022/11/14 10:31:38;;;;;;;8.30;6.53;;;;;;;8.71;nan;97932.63;5053624;28;20228;-70
2022/11/14 10:34:08;;;;;;;6.20;5.20;;;;;;;8.92;nan;97933.13;5053449;28;20342;-70
2022/11/14 10:36:50;;;;;;;6.80;4.67;;;;;;;8.95;nan;97935.38;5053369;28;20185;-70
2022/11/14 10:39:35;;;;;;;5.43;4.33;;;;;;;8.97;nan;97935.97;5053491;28;20205;-71
2022/11/14 10:42:09;;;;;;;4.93;4.47;;;;;;;8.92;nan;97929.69;5053454;28;20228;-70
2022/11/14 10:44:42;;;;;;;4.67;3.90;;;;;;;8.95;nan;97935.38;5052968;28;20196;-71
2022/11/14 10:47:14;;;;;;;5.83;4.20;;;;;;;8.93;nan;97937.44;5053130;28;20212;-71
2022/11/14 10:49:42;;;;;;;5.23;4.50;;;;;;;8.81;nan;97936.44;5053280;28;20196;-71
2022/11/14 10:52:15;;;;;;;6.17;4.47;;;;;;;8.77;nan;97939.72;5052932;28;20231;-71
2022/11/14 10:54:48;;;;;;;6.00;4.00;;;;;;;8.83;nan;97923.00;5053315;28;20215;-70
2022/11/14 10:57:18;;;;;;;4.93;4.23;;;;;;;8.83;nan;97931.75;5052088;28;20182;-70
2022/11/14 10:59:46;;;;;;;5.00;3.87;;;;;;;8.93;nan;97933.97;5053255;28;20597;-70
2022/11/14 11:02:13;;;;;;;6.17;4.00;;;;;;;9.03;nan;97936.97;5052862;28;20236;-71
2022/11/14 11:04:41;;;;;;;5.97;4.20;;;;;;;9.08;nan;97937.97;5052555;28;20201;-71
2022/11/14 11:07:07;;;;;;;6.67;4.00;;;;;;;9.15;nan;97940.56;5053002;28;20621;-71
2022/11/14 11:12:42;;;;;;;4.13;3.60;;;;;;;9.58;nan;97925.59;5052802;28;20173;-71
2022/11/14 11:15:19;;;;;;;4.47;4.07;;;;;;;9.62;nan;97921.47;5053330;28;20284;-71
2022/11/14 11:17:56;;;;;;;5.20;3.80;;;;;;;9.66;nan;97917.38;5052841;28;20197;-71
2022/11/14 11:20:27;;;;;;;4.60;3.87;;;;;;;9.84;nan;97915.59;5052505;28;20227;-71
2022/11/14 11:23:05;;;;;;;4.07;3.63;;;;;;;9.73;nan;97910.19;5052399;28;20680;-71
2022/11/14 11:25:32;;;;;;;5.53;3.90;;;;;;;9.76;nan;97912.38;5052434;28;20207;-71
2022/11/14 11:28:15;;;;;;;4.40;3.60;;;;;;;9.79;nan;97906.66;5052653;28;20221;-71
2022/11/14 11:30:59;;;;;;;3.80;3.27;;;;;;;9.85;nan;97905.75;5052792;28;20232;-71
2022/11/14 11:33:31;;;;;;;5.10;3.50;;;;;;;9.91;nan;97904.91;5052790;28;20276;-70
2022/11/14 11:36:00;;;;;;;4.90;3.97;;;;;;;9.87;nan;97901.84;5052124;28;20208;-70
2022/11/14 11:38:29;;;;;;;4.97;3.60;;;;;;;9.91;nan;97903.06;5052750;28;20205;-72
2022/11/14 11:41:06;;;;;;;4.53;3.20;;;;;;;9.92;nan;97904.66;5053100;28;20225;-71
2022/11/14 11:43:38;;;;;;;5.33;3.10;;;;;;;9.99;nan;97905.44;5052156;28;20636;-71
2022/11/14 11:46:13;;;;;;;4.87;3.10;;;;;;;10.05;nan;97909.91;5052378;28;20719;-71
2022/11/14 11:48:40;;;;;;;3.50;2.63;;;;;;;10.11;nan;97900.25;5052394;28;20581;-71
2022/11/14 11:51:15;;;;;;;3.33;2.63;;;;;;;10.25;nan;97897.25;5052272;28;20235;-71
2022/11/14 11:53:58;;;;;;;2.97;2.67;;;;;;;10.21;nan;97895.22;5050704;28;20189;-71
2022/11/14 11:56:29;;;;;;;2.83;2.10;;;;;;;10.21;nan;97892.56;5052266;28;20278;-71
2022/11/14 11:59:21;;;;;;;2.17;1.93;;;;;;;10.20;nan;97888.31;5051987;28;20185;-71